createdAt,value
2022-11-29T00:01:32.634Z,88.03
2022-11-29T00:04:34.495Z,88.13
2022-11-29T00:07:36.566Z,88.18
2022-11-29T00:10:38.644Z,87.90
2022-11-29T00:13:40.665Z,87.90
2022-11-29T00:16:42.757Z,87.79
2022-11-29T00:19:45.247Z,87.64
2022-11-29T00:22:47.142Z,87.37
2022-11-29T00:25:49.023Z,87.59
2022-11-29T00:28:50.987Z,87.66
2022-11-29T00:31:53.168Z,87.53
2022-11-29T00:34:57.260Z,87.32
2022-11-29T00:38:01.295Z,87.42
2022-11-29T00:41:03.649Z,87.10
2022-11-29T00:44:05.679Z,87.21
2022-11-29T00:47:07.581Z,87.27
2022-11-29T00:50:09.726Z,87.42
2022-11-29T00:53:11.632Z,87.30
2022-11-29T00:56:13.651Z,87.48
2022-11-29T00:59:15.561Z,87.55
2022-11-29T01:02:17.475Z,87.34
2022-11-29T01:05:19.922Z,87.40
2022-11-29T01:08:21.760Z,87.33
2022-11-29T01:11:26.412Z,87.09
2022-11-29T01:14:28.291Z,87.05
2022-11-29T01:17:30.185Z,86.99
2022-11-29T01:20:32.091Z,86.95
2022-11-29T01:23:35.352Z,86.91
2022-11-29T01:26:37.325Z,87.04
2022-11-29T01:29:39.282Z,86.76
2022-11-29T01:32:41.171Z,86.58
2022-11-29T01:35:51.639Z,86.56
2022-11-29T01:38:53.550Z,86.85
2022-11-29T01:41:55.523Z,86.46
2022-11-29T01:45:01.891Z,86.43
2022-11-29T01:48:04.427Z,86.35
2022-11-29T01:51:06.345Z,86.42
2022-11-29T01:54:10.173Z,86.24
2022-11-29T01:57:13.143Z,85.92
2022-11-29T02:00:19.904Z,86.11
2022-11-29T02:03:21.763Z,86.18
2022-11-29T02:06:23.799Z,86.11
2022-11-29T02:09:25.590Z,86.02
2022-11-29T02:12:36.436Z,86.03
2022-11-29T02:15:46.314Z,85.69
2022-11-29T02:19:03.057Z,86.01
2022-11-29T02:22:31.405Z,85.95
2022-11-29T02:25:51.337Z,86.03
2022-11-29T02:29:29.665Z,85.67
2022-11-29T02:32:49.354Z,85.41
2022-11-29T02:36:06.077Z,85.61
2022-11-29T02:39:24.481Z,85.65
2022-11-29T02:42:29.379Z,85.54
2022-11-29T02:45:59.116Z,85.08
2022-11-29T02:49:14.522Z,85.21
2022-11-29T02:52:27.887Z,84.81
2022-11-29T02:56:17.451Z,84.97
2022-11-29T02:59:38.059Z,84.82
2022-11-29T03:02:53.101Z,84.71
2022-11-29T03:06:07.434Z,84.54
2022-11-29T03:09:27.602Z,84.45
2022-11-29T03:12:40.409Z,84.39
2022-11-29T03:15:53.932Z,84.35
2022-11-29T03:19:15.328Z,84.55
2022-11-29T03:22:32.994Z,83.74
2022-11-29T03:25:47.340Z,84.15
2022-11-29T03:29:07.006Z,84.20
2022-11-29T03:32:14.772Z,84.21
2022-11-29T03:35:19.295Z,84.25
2022-11-29T03:38:41.622Z,84.40
2022-11-29T03:41:49.850Z,84.38
2022-11-29T03:45:05.811Z,84.16
2022-11-29T03:48:24.616Z,83.61
2022-11-29T03:51:47.298Z,83.78
2022-11-29T03:55:01.056Z,84.07
2022-11-29T03:58:44.030Z,84.42
2022-11-29T04:02:20.200Z,84.20
2022-11-29T04:05:40.646Z,84.10
2022-11-29T04:08:51.771Z,84.10
2022-11-29T04:12:19.662Z,83.98
2022-11-29T04:15:48.446Z,83.97
2022-11-29T04:19:11.715Z,84.03
2022-11-29T04:22:31.809Z,83.98
2022-11-29T04:26:10.851Z,84.02
2022-11-29T04:29:21.774Z,84.50
2022-11-29T04:33:00.298Z,84.34
2022-11-29T04:36:32.347Z,84.16
2022-11-29T04:39:46.287Z,83.79
2022-11-29T04:43:06.806Z,84.01
2022-11-29T04:46:16.893Z,84.11
2022-11-29T04:49:28.053Z,84.18
2022-11-29T04:53:03.392Z,83.92
2022-11-29T04:56:43.567Z,84.21
2022-11-29T04:59:54.193Z,83.79
2022-11-29T05:03:04.792Z,84.12
2022-11-29T05:06:50.088Z,83.85
2022-11-29T05:10:03.454Z,83.81
2022-11-29T05:13:24.996Z,83.55
2022-11-29T05:16:38.753Z,84.04
2022-11-29T05:20:10.506Z,83.62
2022-11-29T05:23:44.863Z,83.96
2022-11-29T05:27:03.755Z,83.68
2022-11-29T05:30:20.620Z,83.33
2022-11-29T05:33:37.456Z,83.65
2022-11-29T05:36:50.066Z,83.34
2022-11-29T05:40:34.858Z,83.24
2022-11-29T05:43:59.801Z,83.13
2022-11-29T05:47:04.352Z,83.41
2022-11-29T05:50:18.673Z,82.80
2022-11-29T05:53:27.575Z,83.22
2022-11-29T05:57:01.606Z,83.11
2022-11-29T06:00:06.414Z,83.35
2022-11-29T06:03:46.849Z,82.83
2022-11-29T06:07:08.839Z,82.57
2022-11-29T06:10:17.886Z,82.04
2022-11-29T06:13:57.100Z,82.09
2022-11-29T06:17:23.057Z,82.74
2022-11-29T06:20:58.663Z,81.72
2022-11-29T06:24:25.730Z,82.05
2022-11-29T06:28:04.886Z,81.65
2022-11-29T06:31:18.938Z,81.60
2022-11-29T06:34:36.224Z,80.67
2022-11-29T06:37:48.945Z,80.96
2022-11-29T06:40:53.234Z,80.29
2022-11-29T06:43:58.126Z,80.12
2022-11-29T06:47:09.354Z,80.08
2022-11-29T12:47:35.689Z,64.13
2022-11-29T12:51:03.725Z,62.14
2022-11-29T12:54:24.615Z,63.32
2022-11-29T12:57:50.863Z,63.29
2022-11-29T13:01:21.360Z,62.55
2022-11-29T13:04:49.346Z,63.07
2022-11-29T13:08:20.186Z,63.16
2022-11-29T13:11:49.348Z,63.37
2022-11-29T13:15:17.153Z,62.40
2022-11-29T13:18:23.393Z,62.02
2022-11-29T13:21:37.268Z,62.41
2022-11-29T13:24:50.895Z,63.08
2022-11-29T13:28:03.720Z,63.35
2022-11-29T13:31:09.599Z,62.90
2022-11-29T13:34:41.558Z,62.17
2022-11-29T13:37:55.189Z,62.01
2022-11-29T13:41:19.793Z,62.16
2022-11-29T13:44:46.180Z,63.00
2022-11-29T13:47:50.556Z,64.11
2022-11-29T13:50:52.373Z,64.80
2022-11-29T13:54:03.387Z,64.96
2022-11-29T13:57:09.631Z,65.33
2022-11-29T20:15:05.387Z,77.92
2022-11-29T20:18:07.658Z,77.34
2022-11-29T20:21:15.085Z,77.14
2022-11-29T20:24:18.009Z,77.00
2022-11-29T20:27:20.742Z,76.46
2022-11-29T20:30:22.823Z,76.30
2022-11-29T20:33:25.634Z,76.58
2022-11-29T20:36:45.477Z,76.50
2022-11-29T20:40:08.583Z,75.69
2022-11-29T20:43:22.599Z,75.63
2022-11-29T20:46:25.950Z,76.28
2022-11-29T20:49:28.306Z,76.01
2022-11-29T20:52:32.931Z,76.01
2022-11-29T20:55:41.453Z,75.92
2022-11-29T20:58:48.211Z,76.08
2022-11-29T21:01:50.948Z,76.25
2022-11-29T21:04:52.887Z,76.73
2022-11-29T21:07:54.838Z,76.85
2022-11-29T21:11:05.961Z,76.23
2022-11-29T21:14:09.160Z,76.53
2022-11-29T21:17:11.272Z,76.44
2022-11-29T21:20:23.595Z,77.06
2022-11-29T21:24:06.833Z,76.51
2022-11-29T21:27:14.915Z,76.97
2022-11-29T21:30:20.020Z,76.59
2022-11-29T21:33:22.073Z,77.35
2022-11-29T21:36:24.039Z,77.44
2022-11-29T21:39:32.809Z,77.27
2022-11-29T21:42:34.779Z,77.50
2022-11-29T21:45:36.746Z,77.43
2022-11-29T21:48:38.581Z,76.97
2022-11-29T21:51:40.953Z,78.10
2022-11-29T21:54:42.826Z,77.84
2022-11-29T21:57:44.691Z,78.15
2022-11-29T22:00:46.545Z,77.76
2022-11-29T22:03:48.545Z,78.54
2022-11-29T22:06:50.594Z,78.61
2022-11-29T22:09:52.460Z,78.76
2022-11-29T22:12:54.233Z,78.02
2022-11-29T22:16:04.762Z,78.27
2022-11-29T22:19:06.576Z,78.33
2022-11-29T22:22:10.936Z,78.02
2022-11-29T22:25:12.766Z,78.17
2022-11-29T22:28:14.576Z,77.87
2022-11-29T22:31:16.470Z,78.36
2022-11-29T22:34:19.016Z,78.32
2022-11-29T22:37:20.989Z,78.33
2022-11-29T22:40:22.881Z,77.85
2022-11-29T22:43:24.729Z,78.54
2022-11-29T22:46:27.909Z,78.21
2022-11-29T22:49:30.136Z,78.45
2022-11-29T22:52:31.974Z,78.14
2022-11-29T22:55:33.837Z,78.03
2022-11-29T22:58:36.363Z,77.84
2022-11-29T23:01:40.796Z,77.85
2022-11-29T23:04:44.732Z,77.78
2022-11-29T23:07:47.414Z,77.59
2022-11-29T23:10:57.185Z,78.17
2022-11-29T23:13:59.063Z,77.98
2022-11-29T23:17:00.911Z,78.33
2022-11-29T23:20:02.778Z,77.81
2022-11-29T23:23:04.641Z,77.56
2022-11-29T23:26:08.701Z,77.71
2022-11-29T23:29:13.966Z,77.66
2022-11-29T23:32:15.847Z,77.73
2022-11-29T23:35:17.740Z,77.58
2022-11-29T23:38:19.592Z,77.70
2022-11-29T23:41:21.555Z,77.36
2022-11-29T23:44:23.394Z,76.79
2022-11-29T23:47:25.321Z,77.23
2022-11-29T23:50:27.219Z,77.00
2022-11-29T23:53:29.085Z,76.96
2022-11-29T23:56:35.385Z,77.52
2022-11-29T23:59:37.445Z,77.17
